sensor_id;sensor_type;location;lat;lon;timestamp;P1;durP1;ratioP1;P2;durP2;ratioP2
72601;SDS011;60644;55.858;37.390;2023-03-23T00:01:47;4.57;;;1.30;;
72601;SDS011;60644;55.858;37.390;2023-03-23T00:04:15;5.40;;;1.50;;
72601;SDS011;60644;55.858;37.390;2023-03-23T00:06:41;5.60;;;1.60;;
72601;SDS011;60644;55.858;37.390;2023-03-23T00:09:07;5.13;;;1.42;;
72601;SDS011;60644;55.858;37.390;2023-03-23T00:11:33;4.47;;;1.20;;
72601;SDS011;60644;55.858;37.390;2023-03-23T00:13:59;4.97;;;1.10;;
72601;SDS011;60644;55.858;37.390;2023-03-23T00:16:32;5.25;;;1.48;;
72601;SDS011;60644;55.858;37.390;2023-03-23T00:18:59;4.95;;;1.35;;
72601;SDS011;60644;55.858;37.390;2023-03-23T00:21:26;5.03;;;1.20;;
72601;SDS011;60644;55.858;37.390;2023-03-23T00:24:02;4.75;;;1.10;;
72601;SDS011;60644;55.858;37.390;2023-03-23T00:26:28;5.05;;;1.25;;
72601;SDS011;60644;55.858;37.390;2023-03-23T00:28:55;6.50;;;1.35;;
72601;SDS011;60644;55.858;37.390;2023-03-23T00:31:21;4.43;;;1.13;;
72601;SDS011;60644;55.858;37.390;2023-03-23T00:33:47;4.93;;;1.30;;
72601;SDS011;60644;55.858;37.390;2023-03-23T00:36:13;4.97;;;1.48;;
72601;SDS011;60644;55.858;37.390;2023-03-23T00:38:40;4.97;;;0.95;;
72601;SDS011;60644;55.858;37.390;2023-03-23T00:41:07;4.53;;;1.08;;
72601;SDS011;60644;55.858;37.390;2023-03-23T00:43:33;5.43;;;1.40;;
72601;SDS011;60644;55.858;37.390;2023-03-23T00:46:02;5.10;;;1.40;;
72601;SDS011;60644;55.858;37.390;2023-03-23T00:48:35;4.57;;;1.35;;
72601;SDS011;60644;55.858;37.390;2023-03-23T00:51:02;5.43;;;1.30;;
72601;SDS011;60644;55.858;37.390;2023-03-23T00:53:32;5.57;;;1.48;;
72601;SDS011;60644;55.858;37.390;2023-03-23T00:55:57;4.68;;;1.20;;
72601;SDS011;60644;55.858;37.390;2023-03-23T00:58:23;3.92;;;1.00;;
72601;SDS011;60644;55.858;37.390;2023-03-23T01:00:49;5.03;;;1.47;;
72601;SDS011;60644;55.858;37.390;2023-03-23T01:03:14;4.82;;;1.50;;
72601;SDS011;60644;55.858;37.390;2023-03-23T01:05:43;5.78;;;1.13;;
72601;SDS011;60644;55.858;37.390;2023-03-23T01:08:09;3.65;;;0.82;;
72601;SDS011;60644;55.858;37.390;2023-03-23T01:10:35;6.47;;;1.10;;
72601;SDS011;60644;55.858;37.390;2023-03-23T01:13:04;9.02;;;1.40;;
72601;SDS011;60644;55.858;37.390;2023-03-23T01:15:30;3.75;;;0.90;;
72601;SDS011;60644;55.858;37.390;2023-03-23T01:17:56;4.75;;;1.17;;
72601;SDS011;60644;55.858;37.390;2023-03-23T01:20:22;6.07;;;1.38;;
72601;SDS011;60644;55.858;37.390;2023-03-23T01:22:48;5.43;;;1.67;;
72601;SDS011;60644;55.858;37.390;2023-03-23T01:25:13;4.03;;;1.00;;
72601;SDS011;60644;55.858;37.390;2023-03-23T01:27:39;4.07;;;1.20;;
72601;SDS011;60644;55.858;37.390;2023-03-23T01:30:06;6.95;;;1.05;;
72601;SDS011;60644;55.858;37.390;2023-03-23T01:32:31;4.63;;;1.27;;
72601;SDS011;60644;55.858;37.390;2023-03-23T01:34:57;5.20;;;1.00;;
72601;SDS011;60644;55.858;37.390;2023-03-23T01:37:23;3.78;;;0.95;;
72601;SDS011;60644;55.858;37.390;2023-03-23T01:39:54;4.65;;;1.30;;
72601;SDS011;60644;55.858;37.390;2023-03-23T01:42:21;8.30;;;1.30;;
72601;SDS011;60644;55.858;37.390;2023-03-23T01:47:14;6.13;;;1.40;;
72601;SDS011;60644;55.858;37.390;2023-03-23T01:49:41;6.18;;;1.50;;
72601;SDS011;60644;55.858;37.390;2023-03-23T01:52:10;5.47;;;1.33;;
72601;SDS011;60644;55.858;37.390;2023-03-23T01:54:43;5.90;;;1.65;;
72601;SDS011;60644;55.858;37.390;2023-03-23T01:57:11;6.88;;;1.52;;
72601;SDS011;60644;55.858;37.390;2023-03-23T01:59:39;9.05;;;2.00;;
72601;SDS011;60644;55.858;37.390;2023-03-23T02:02:26;12.55;;;1.85;;
72601;SDS011;60644;55.858;37.390;2023-03-23T02:04:55;9.48;;;1.80;;
72601;SDS011;60644;55.858;37.390;2023-03-23T02:07:22;8.88;;;1.88;;
72601;SDS011;60644;55.858;37.390;2023-03-23T02:09:50;9.93;;;1.80;;
72601;SDS011;60644;55.858;37.390;2023-03-23T02:12:15;5.82;;;1.58;;
72601;SDS011;60644;55.858;37.390;2023-03-23T02:14:41;5.10;;;1.55;;
72601;SDS011;60644;55.858;37.390;2023-03-23T02:17:30;6.40;;;1.20;;
72601;SDS011;60644;55.858;37.390;2023-03-23T02:29:57;6.18;;;1.50;;
72601;SDS011;60644;55.858;37.390;2023-03-23T02:32:34;5.55;;;1.40;;
72601;SDS011;60644;55.858;37.390;2023-03-23T02:35:12;6.47;;;2.08;;
72601;SDS011;60644;55.858;37.390;2023-03-23T02:37:44;7.65;;;1.95;;
72601;SDS011;60644;55.858;37.390;2023-03-23T02:40:15;6.85;;;1.75;;
72601;SDS011;60644;55.858;37.390;2023-03-23T02:42:43;5.60;;;1.40;;
72601;SDS011;60644;55.858;37.390;2023-03-23T02:45:11;7.55;;;1.38;;
72601;SDS011;60644;55.858;37.390;2023-03-23T02:47:38;7.15;;;1.83;;
72601;SDS011;60644;55.858;37.390;2023-03-23T02:50:04;9.75;;;1.50;;
72601;SDS011;60644;55.858;37.390;2023-03-23T02:52:31;7.95;;;1.52;;
72601;SDS011;60644;55.858;37.390;2023-03-23T02:54:57;9.07;;;2.53;;
72601;SDS011;60644;55.858;37.390;2023-03-23T02:57:25;8.40;;;2.53;;
72601;SDS011;60644;55.858;37.390;2023-03-23T02:59:54;7.55;;;1.73;;
72601;SDS011;60644;55.858;37.390;2023-03-23T03:02:24;8.70;;;2.30;;
72601;SDS011;60644;55.858;37.390;2023-03-23T03:04:54;11.85;;;2.63;;
72601;SDS011;60644;55.858;37.390;2023-03-23T03:10:11;9.40;;;2.15;;
72601;SDS011;60644;55.858;37.390;2023-03-23T03:12:53;6.70;;;1.75;;
72601;SDS011;60644;55.858;37.390;2023-03-23T03:15:32;11.10;;;1.88;;
72601;SDS011;60644;55.858;37.390;2023-03-23T03:18:10;10.05;;;2.40;;
72601;SDS011;60644;55.858;37.390;2023-03-23T03:20:40;9.32;;;2.42;;
72601;SDS011;60644;55.858;37.390;2023-03-23T03:23:10;6.22;;;1.77;;
72601;SDS011;60644;55.858;37.390;2023-03-23T03:25:40;5.85;;;1.73;;
72601;SDS011;60644;55.858;37.390;2023-03-23T03:28:14;6.50;;;1.70;;
72601;SDS011;60644;55.858;37.390;2023-03-23T03:30:43;7.15;;;1.83;;
72601;SDS011;60644;55.858;37.390;2023-03-23T03:33:12;7.95;;;2.05;;
72601;SDS011;60644;55.858;37.390;2023-03-23T03:35:38;5.70;;;1.52;;
72601;SDS011;60644;55.858;37.390;2023-03-23T03:38:07;8.45;;;1.85;;
72601;SDS011;60644;55.858;37.390;2023-03-23T03:40:34;7.20;;;2.03;;
72601;SDS011;60644;55.858;37.390;2023-03-23T03:43:00;9.45;;;2.33;;
72601;SDS011;60644;55.858;37.390;2023-03-23T03:45:26;6.47;;;2.00;;
72601;SDS011;60644;55.858;37.390;2023-03-23T03:47:52;5.20;;;1.63;;
72601;SDS011;60644;55.858;37.390;2023-03-23T03:50:18;6.90;;;1.77;;
72601;SDS011;60644;55.858;37.390;2023-03-23T03:52:43;6.13;;;2.10;;
72601;SDS011;60644;55.858;37.390;2023-03-23T03:55:09;6.97;;;1.67;;
72601;SDS011;60644;55.858;37.390;2023-03-23T03:57:38;5.13;;;1.60;;
72601;SDS011;60644;55.858;37.390;2023-03-23T04:00:05;5.57;;;1.87;;
72601;SDS011;60644;55.858;37.390;2023-03-23T04:02:49;5.88;;;1.60;;
72601;SDS011;60644;55.858;37.390;2023-03-23T04:05:41;7.60;;;2.30;;
72601;SDS011;60644;55.858;37.390;2023-03-23T04:08:07;5.00;;;1.85;;
72601;SDS011;60644;55.858;37.390;2023-03-23T04:10:33;6.97;;;2.10;;
72601;SDS011;60644;55.858;37.390;2023-03-23T04:13:00;7.88;;;2.40;;
72601;SDS011;60644;55.858;37.390;2023-03-23T04:15:44;11.55;;;2.78;;
72601;SDS011;60644;55.858;37.390;2023-03-23T04:18:10;9.20;;;2.28;;
72601;SDS011;60644;55.858;37.390;2023-03-23T04:20:37;5.87;;;2.23;;
72601;SDS011;60644;55.858;37.390;2023-03-23T04:23:03;13.02;;;2.47;;
72601;SDS011;60644;55.858;37.390;2023-03-23T04:25:31;14.73;;;3.22;;
72601;SDS011;60644;55.858;37.390;2023-03-23T04:27:58;12.68;;;2.60;;
72601;SDS011;60644;55.858;37.390;2023-03-23T04:30:31;7.90;;;2.58;;
72601;SDS011;60644;55.858;37.390;2023-03-23T04:33:02;7.17;;;2.00;;
72601;SDS011;60644;55.858;37.390;2023-03-23T04:35:29;11.75;;;2.45;;
72601;SDS011;60644;55.858;37.390;2023-03-23T04:38:12;11.48;;;3.35;;
72601;SDS011;60644;55.858;37.390;2023-03-23T04:40:41;9.35;;;2.90;;
72601;SDS011;60644;55.858;37.390;2023-03-23T04:43:22;9.50;;;2.50;;
72601;SDS011;60644;55.858;37.390;2023-03-23T04:46:10;8.27;;;2.67;;
72601;SDS011;60644;55.858;37.390;2023-03-23T04:48:37;9.93;;;2.78;;
72601;SDS011;60644;55.858;37.390;2023-03-23T04:51:13;10.07;;;2.75;;
72601;SDS011;60644;55.858;37.390;2023-03-23T04:53:41;8.20;;;2.80;;
72601;SDS011;60644;55.858;37.390;2023-03-23T04:56:07;9.18;;;3.20;;
72601;SDS011;60644;55.858;37.390;2023-03-23T04:58:40;7.13;;;2.87;;
72601;SDS011;60644;55.858;37.390;2023-03-23T05:01:17;7.57;;;2.80;;
72601;SDS011;60644;55.858;37.390;2023-03-23T05:04:21;7.53;;;2.40;;
72601;SDS011;60644;55.858;37.390;2023-03-23T05:07:07;8.07;;;3.38;;
72601;SDS011;60644;55.858;37.390;2023-03-23T05:09:39;7.80;;;2.30;;
72601;SDS011;60644;55.858;37.390;2023-03-23T05:12:05;9.33;;;2.53;;
72601;SDS011;60644;55.858;37.390;2023-03-23T05:14:33;8.88;;;3.05;;
72601;SDS011;60644;55.858;37.390;2023-03-23T05:17:05;8.30;;;3.33;;
72601;SDS011;60644;55.858;37.390;2023-03-23T05:19:31;9.27;;;3.33;;
72601;SDS011;60644;55.858;37.390;2023-03-23T05:22:02;9.40;;;3.67;;
72601;SDS011;60644;55.858;37.390;2023-03-23T05:24:39;8.32;;;3.15;;
72601;SDS011;60644;55.858;37.390;2023-03-23T05:27:05;11.57;;;3.83;;
72601;SDS011;60644;55.858;37.390;2023-03-23T05:29:34;8.82;;;3.50;;
72601;SDS011;60644;55.858;37.390;2023-03-23T05:32:04;10.43;;;3.35;;
72601;SDS011;60644;55.858;37.390;2023-03-23T05:34:34;11.25;;;3.65;;
72601;SDS011;60644;55.858;37.390;2023-03-23T05:37:01;9.65;;;3.08;;
72601;SDS011;60644;55.858;37.390;2023-03-23T05:39:33;10.15;;;3.17;;
72601;SDS011;60644;55.858;37.390;2023-03-23T05:42:20;9.82;;;4.20;;
72601;SDS011;60644;55.858;37.390;2023-03-23T05:44:58;11.10;;;4.32;;
72601;SDS011;60644;55.858;37.390;2023-03-23T05:47:24;8.77;;;3.63;;
72601;SDS011;60644;55.858;37.390;2023-03-23T05:49:55;10.43;;;4.20;;
72601;SDS011;60644;55.858;37.390;2023-03-23T05:52:24;11.43;;;4.03;;
72601;SDS011;60644;55.858;37.390;2023-03-23T05:54:50;9.68;;;4.38;;
72601;SDS011;60644;55.858;37.390;2023-03-23T05:57:17;11.48;;;4.03;;
72601;SDS011;60644;55.858;37.390;2023-03-23T05:59:50;9.52;;;3.60;;
72601;SDS011;60644;55.858;37.390;2023-03-23T06:02:21;13.57;;;4.47;;
72601;SDS011;60644;55.858;37.390;2023-03-23T06:04:48;8.23;;;3.90;;
72601;SDS011;60644;55.858;37.390;2023-03-23T06:07:25;11.35;;;4.32;;
72601;SDS011;60644;55.858;37.390;2023-03-23T06:09:57;10.43;;;4.60;;
72601;SDS011;60644;55.858;37.390;2023-03-23T06:12:23;10.60;;;3.88;;
72601;SDS011;60644;55.858;37.390;2023-03-23T06:15:08;12.57;;;3.33;;
72601;SDS011;60644;55.858;37.390;2023-03-23T06:17:52;8.43;;;3.92;;
72601;SDS011;60644;55.858;37.390;2023-03-23T06:20:23;10.50;;;4.13;;
72601;SDS011;60644;55.858;37.390;2023-03-23T06:22:51;11.07;;;4.15;;
72601;SDS011;60644;55.858;37.390;2023-03-23T06:25:35;11.75;;;5.07;;
72601;SDS011;60644;55.858;37.390;2023-03-23T06:28:01;10.53;;;4.40;;
72601;SDS011;60644;55.858;37.390;2023-03-23T06:30:27;10.63;;;4.45;;
72601;SDS011;60644;55.858;37.390;2023-03-23T06:32:57;11.75;;;5.30;;
72601;SDS011;60644;55.858;37.390;2023-03-23T06:35:43;10.85;;;4.40;;
72601;SDS011;60644;55.858;37.390;2023-03-23T06:38:15;10.98;;;3.95;;
72601;SDS011;60644;55.858;37.390;2023-03-23T06:40:54;10.15;;;3.75;;
72601;SDS011;60644;55.858;37.390;2023-03-23T06:43:21;12.20;;;4.45;;
72601;SDS011;60644;55.858;37.390;2023-03-23T06:45:49;11.27;;;4.53;;
72601;SDS011;60644;55.858;37.390;2023-03-23T06:48:45;10.63;;;4.65;;
72601;SDS011;60644;55.858;37.390;2023-03-23T06:51:16;11.52;;;4.13;;
72601;SDS011;60644;55.858;37.390;2023-03-23T06:53:46;8.77;;;3.25;;
72601;SDS011;60644;55.858;37.390;2023-03-23T06:56:12;10.95;;;4.10;;
72601;SDS011;60644;55.858;37.390;2023-03-23T06:58:40;11.50;;;4.03;;
72601;SDS011;60644;55.858;37.390;2023-03-23T07:01:07;8.90;;;3.50;;
72601;SDS011;60644;55.858;37.390;2023-03-23T07:03:39;9.90;;;3.85;;
72601;SDS011;60644;55.858;37.390;2023-03-23T07:06:08;10.95;;;3.70;;
72601;SDS011;60644;55.858;37.390;2023-03-23T07:08:41;8.50;;;4.00;;
72601;SDS011;60644;55.858;37.390;2023-03-23T07:11:12;8.70;;;3.47;;
72601;SDS011;60644;55.858;37.390;2023-03-23T07:13:39;10.13;;;3.60;;
72601;SDS011;60644;55.858;37.390;2023-03-23T07:16:04;8.77;;;3.17;;
72601;SDS011;60644;55.858;37.390;2023-03-23T07:18:32;9.80;;;3.95;;
72601;SDS011;60644;55.858;37.390;2023-03-23T07:20:59;8.85;;;3.50;;
72601;SDS011;60644;55.858;37.390;2023-03-23T07:23:29;11.63;;;4.30;;
72601;SDS011;60644;55.858;37.390;2023-03-23T07:26:00;11.15;;;4.25;;
72601;SDS011;60644;55.858;37.390;2023-03-23T07:28:32;9.98;;;4.10;;
72601;SDS011;60644;55.858;37.390;2023-03-23T07:31:04;11.10;;;3.55;;
72601;SDS011;60644;55.858;37.390;2023-03-23T07:33:30;8.73;;;3.83;;
72601;SDS011;60644;55.858;37.390;2023-03-23T07:36:00;9.85;;;3.63;;
72601;SDS011;60644;55.858;37.390;2023-03-23T07:38:28;9.80;;;4.32;;
72601;SDS011;60644;55.858;37.390;2023-03-23T07:40:53;8.57;;;3.90;;
72601;SDS011;60644;55.858;37.390;2023-03-23T07:43:20;9.80;;;3.63;;
72601;SDS011;60644;55.858;37.390;2023-03-23T07:46:12;9.68;;;4.13;;
72601;SDS011;60644;55.858;37.390;2023-03-23T07:48:47;9.60;;;4.30;;
72601;SDS011;60644;55.858;37.390;2023-03-23T07:51:14;9.00;;;3.22;;
72601;SDS011;60644;55.858;37.390;2023-03-23T07:53:43;11.88;;;4.80;;
72601;SDS011;60644;55.858;37.390;2023-03-23T07:56:36;10.00;;;3.80;;
72601;SDS011;60644;55.858;37.390;2023-03-23T07:59:11;9.57;;;4.07;;
72601;SDS011;60644;55.858;37.390;2023-03-23T08:01:39;8.63;;;4.10;;
72601;SDS011;60644;55.858;37.390;2023-03-23T08:04:23;11.25;;;4.25;;
72601;SDS011;60644;55.858;37.390;2023-03-23T08:07:17;9.82;;;4.53;;
72601;SDS011;60644;55.858;37.390;2023-03-23T08:10:20;9.07;;;3.33;;
72601;SDS011;60644;55.858;37.390;2023-03-23T08:12:59;11.88;;;3.90;;
72601;SDS011;60644;55.858;37.390;2023-03-23T08:15:43;9.95;;;4.30;;
72601;SDS011;60644;55.858;37.390;2023-03-23T08:18:32;10.63;;;4.53;;
72601;SDS011;60644;55.858;37.390;2023-03-23T08:21:21;8.13;;;3.53;;
72601;SDS011;60644;55.858;37.390;2023-03-23T08:24:18;9.23;;;3.80;;
72601;SDS011;60644;55.858;37.390;2023-03-23T08:26:49;7.88;;;3.25;;
72601;SDS011;60644;55.858;37.390;2023-03-23T08:29:18;7.32;;;3.20;;
72601;SDS011;60644;55.858;37.390;2023-03-23T08:32:19;7.97;;;4.13;;
72601;SDS011;60644;55.858;37.390;2023-03-23T08:35:03;9.45;;;3.45;;
72601;SDS011;60644;55.858;37.390;2023-03-23T08:37:43;7.77;;;3.17;;
72601;SDS011;60644;55.858;37.390;2023-03-23T08:40:20;9.20;;;3.60;;
72601;SDS011;60644;55.858;37.390;2023-03-23T08:43:12;7.75;;;3.53;;
72601;SDS011;60644;55.858;37.390;2023-03-23T08:45:56;8.73;;;3.38;;
72601;SDS011;60644;55.858;37.390;2023-03-23T08:48:42;7.88;;;3.83;;
72601;SDS011;60644;55.858;37.390;2023-03-23T08:51:27;8.83;;;3.70;;
72601;SDS011;60644;55.858;37.390;2023-03-23T08:54:22;7.60;;;3.50;;
72601;SDS011;60644;55.858;37.390;2023-03-23T08:57:06;8.63;;;3.45;;
72601;SDS011;60644;55.858;37.390;2023-03-23T08:59:51;11.45;;;3.80;;
72601;SDS011;60644;55.858;37.390;2023-03-23T09:02:52;11.52;;;4.72;;
72601;SDS011;60644;55.858;37.390;2023-03-23T09:05:21;9.07;;;3.50;;
72601;SDS011;60644;55.858;37.390;2023-03-23T09:08:09;12.75;;;3.55;;
72601;SDS011;60644;55.858;37.390;2023-03-23T09:10:35;8.07;;;3.67;;
72601;SDS011;60644;55.858;37.390;2023-03-23T09:13:00;8.30;;;3.20;;
72601;SDS011;60644;55.858;37.390;2023-03-23T09:15:26;10.00;;;2.92;;
72601;SDS011;60644;55.858;37.390;2023-03-23T09:17:52;12.65;;;3.63;;
72601;SDS011;60644;55.858;37.390;2023-03-23T09:20:20;13.38;;;4.45;;
72601;SDS011;60644;55.858;37.390;2023-03-23T09:22:47;8.57;;;3.60;;
72601;SDS011;60644;55.858;37.390;2023-03-23T09:25:14;9.20;;;3.17;;
72601;SDS011;60644;55.858;37.390;2023-03-23T09:27:41;8.00;;;3.30;;
72601;SDS011;60644;55.858;37.390;2023-03-23T09:30:07;8.23;;;3.30;;
72601;SDS011;60644;55.858;37.390;2023-03-23T09:32:34;7.88;;;3.40;;
72601;SDS011;60644;55.858;37.390;2023-03-23T09:35:03;9.38;;;3.50;;
72601;SDS011;60644;55.858;37.390;2023-03-23T09:37:29;8.98;;;3.40;;
72601;SDS011;60644;55.858;37.390;2023-03-23T09:39:55;8.63;;;3.17;;
72601;SDS011;60644;55.858;37.390;2023-03-23T09:47:20;8.20;;;3.53;;
72601;SDS011;60644;55.858;37.390;2023-03-23T09:49:59;8.15;;;3.47;;
72601;SDS011;60644;55.858;37.390;2023-03-23T09:52:30;7.72;;;3.20;;
72601;SDS011;60644;55.858;37.390;2023-03-23T09:54:58;7.07;;;3.25;;
72601;SDS011;60644;55.858;37.390;2023-03-23T10:00:13;9.43;;;3.17;;
72601;SDS011;60644;55.858;37.390;2023-03-23T10:05:27;6.70;;;2.53;;
72601;SDS011;60644;55.858;37.390;2023-03-23T10:07:55;9.40;;;3.17;;
72601;SDS011;60644;55.858;37.390;2023-03-23T10:10:21;8.00;;;2.77;;
72601;SDS011;60644;55.858;37.390;2023-03-23T10:12:52;8.25;;;2.72;;
72601;SDS011;60644;55.858;37.390;2023-03-23T10:15:23;7.45;;;2.83;;
72601;SDS011;60644;55.858;37.390;2023-03-23T10:17:56;7.07;;;2.40;;
72601;SDS011;60644;55.858;37.390;2023-03-23T10:25:56;8.80;;;2.80;;
72601;SDS011;60644;55.858;37.390;2023-03-23T10:28:39;8.82;;;2.97;;
72601;SDS011;60644;55.858;37.390;2023-03-23T10:31:05;8.63;;;2.55;;
72601;SDS011;60644;55.858;37.390;2023-03-23T10:33:44;5.63;;;2.22;;
72601;SDS011;60644;55.858;37.390;2023-03-23T10:36:12;8.60;;;3.13;;
72601;SDS011;60644;55.858;37.390;2023-03-23T10:38:41;7.13;;;2.85;;
72601;SDS011;60644;55.858;37.390;2023-03-23T10:41:13;9.10;;;2.40;;
72601;SDS011;60644;55.858;37.390;2023-03-23T10:43:40;6.68;;;2.67;;
72601;SDS011;60644;55.858;37.390;2023-03-23T10:48:59;5.53;;;2.23;;
72601;SDS011;60644;55.858;37.390;2023-03-23T10:51:28;7.03;;;2.95;;
72601;SDS011;60644;55.858;37.390;2023-03-23T10:53:58;6.30;;;2.42;;
72601;SDS011;60644;55.858;37.390;2023-03-23T10:56:29;6.47;;;2.53;;
72601;SDS011;60644;55.858;37.390;2023-03-23T10:58:59;6.85;;;2.35;;
72601;SDS011;60644;55.858;37.390;2023-03-23T11:01:31;7.33;;;2.33;;
72601;SDS011;60644;55.858;37.390;2023-03-23T11:03:57;6.50;;;2.55;;
72601;SDS011;60644;55.858;37.390;2023-03-23T11:06:29;6.95;;;2.75;;
72601;SDS011;60644;55.858;37.390;2023-03-23T11:09:10;5.93;;;2.10;;
72601;SDS011;60644;55.858;37.390;2023-03-23T11:11:38;6.82;;;2.03;;
72601;SDS011;60644;55.858;37.390;2023-03-23T11:16:44;5.90;;;1.70;;
72601;SDS011;60644;55.858;37.390;2023-03-23T11:19:21;5.80;;;2.20;;
72601;SDS011;60644;55.858;37.390;2023-03-23T11:21:47;5.47;;;2.13;;
72601;SDS011;60644;55.858;37.390;2023-03-23T11:24:13;6.28;;;1.88;;
72601;SDS011;60644;55.858;37.390;2023-03-23T11:26:38;6.20;;;2.20;;
72601;SDS011;60644;55.858;37.390;2023-03-23T11:29:12;6.72;;;1.75;;
72601;SDS011;60644;55.858;37.390;2023-03-23T11:31:39;5.43;;;1.80;;
72601;SDS011;60644;55.858;37.390;2023-03-23T11:34:21;7.43;;;1.75;;
72601;SDS011;60644;55.858;37.390;2023-03-23T11:36:49;6.00;;;2.20;;
72601;SDS011;60644;55.858;37.390;2023-03-23T11:39:26;7.78;;;2.30;;
72601;SDS011;60644;55.858;37.390;2023-03-23T11:41:53;6.93;;;2.00;;
72601;SDS011;60644;55.858;37.390;2023-03-23T11:44:19;4.88;;;1.95;;
72601;SDS011;60644;55.858;37.390;2023-03-23T11:46:52;4.78;;;1.98;;
72601;SDS011;60644;55.858;37.390;2023-03-23T11:49:30;6.60;;;2.40;;
72601;SDS011;60644;55.858;37.390;2023-03-23T11:52:02;6.22;;;2.03;;
72601;SDS011;60644;55.858;37.390;2023-03-23T11:56:56;6.37;;;1.90;;
72601;SDS011;60644;55.858;37.390;2023-03-23T12:07:26;6.00;;;2.30;;
72601;SDS011;60644;55.858;37.390;2023-03-23T12:10:02;7.15;;;2.35;;
72601;SDS011;60644;55.858;37.390;2023-03-23T12:12:40;6.32;;;1.73;;
72601;SDS011;60644;55.858;37.390;2023-03-23T12:30:32;5.03;;;1.70;;
72601;SDS011;60644;55.858;37.390;2023-03-23T12:38:09;5.75;;;2.15;;
72601;SDS011;60644;55.858;37.390;2023-03-23T12:48:09;6.57;;;2.83;;
72601;SDS011;60644;55.858;37.390;2023-03-23T12:53:28;6.03;;;1.70;;
72601;SDS011;60644;55.858;37.390;2023-03-23T12:58:57;5.80;;;2.00;;
72601;SDS011;60644;55.858;37.390;2023-03-23T13:01:27;4.78;;;1.45;;
72601;SDS011;60644;55.858;37.390;2023-03-23T13:04:14;7.00;;;2.20;;
72601;SDS011;60644;55.858;37.390;2023-03-23T13:06:42;6.80;;;1.97;;
72601;SDS011;60644;55.858;37.390;2023-03-23T13:09:16;7.40;;;1.83;;
72601;SDS011;60644;55.858;37.390;2023-03-23T13:11:43;5.05;;;1.77;;
72601;SDS011;60644;55.858;37.390;2023-03-23T13:24:23;6.37;;;2.07;;
72601;SDS011;60644;55.858;37.390;2023-03-23T13:26:50;5.90;;;1.80;;
72601;SDS011;60644;55.858;37.390;2023-03-23T13:29:17;5.82;;;2.17;;
72601;SDS011;60644;55.858;37.390;2023-03-23T13:31:44;6.22;;;2.08;;
72601;SDS011;60644;55.858;37.390;2023-03-23T13:34:12;6.90;;;2.30;;
72601;SDS011;60644;55.858;37.390;2023-03-23T13:36:59;5.45;;;1.70;;
72601;SDS011;60644;55.858;37.390;2023-03-23T13:39:37;5.53;;;1.70;;
72601;SDS011;60644;55.858;37.390;2023-03-23T13:42:05;6.57;;;2.33;;
72601;SDS011;60644;55.858;37.390;2023-03-23T13:49:53;6.05;;;2.45;;
72601;SDS011;60644;55.858;37.390;2023-03-23T13:57:54;8.27;;;2.30;;
72601;SDS011;60644;55.858;37.390;2023-03-23T14:05:36;8.02;;;2.33;;
72601;SDS011;60644;55.858;37.390;2023-03-23T14:08:03;9.47;;;2.40;;
72601;SDS011;60644;55.858;37.390;2023-03-23T14:10:54;6.43;;;2.33;;
72601;SDS011;60644;55.858;37.390;2023-03-23T14:13:28;7.95;;;2.45;;
72601;SDS011;60644;55.858;37.390;2023-03-23T14:18:21;7.80;;;2.67;;
72601;SDS011;60644;55.858;37.390;2023-03-23T14:20:47;7.35;;;2.10;;
72601;SDS011;60644;55.858;37.390;2023-03-23T14:23:17;8.57;;;2.35;;
72601;SDS011;60644;55.858;37.390;2023-03-23T14:25:43;7.37;;;2.30;;
72601;SDS011;60644;55.858;37.390;2023-03-23T14:28:19;9.77;;;2.30;;
72601;SDS011;60644;55.858;37.390;2023-03-23T14:30:48;8.75;;;2.33;;
72601;SDS011;60644;55.858;37.390;2023-03-23T14:33:17;7.05;;;2.78;;
72601;SDS011;60644;55.858;37.390;2023-03-23T14:35:45;8.82;;;2.28;;
72601;SDS011;60644;55.858;37.390;2023-03-23T14:38:16;6.00;;;2.30;;
72601;SDS011;60644;55.858;37.390;2023-03-23T14:40:43;10.02;;;2.15;;
72601;SDS011;60644;55.858;37.390;2023-03-23T14:43:10;7.17;;;2.70;;
72601;SDS011;60644;55.858;37.390;2023-03-23T14:45:37;9.90;;;2.37;;
72601;SDS011;60644;55.858;37.390;2023-03-23T14:48:03;7.40;;;2.30;;
72601;SDS011;60644;55.858;37.390;2023-03-23T14:50:30;6.38;;;2.47;;
72601;SDS011;60644;55.858;37.390;2023-03-23T14:52:59;8.98;;;2.50;;
72601;SDS011;60644;55.858;37.390;2023-03-23T14:55:25;7.55;;;2.33;;
72601;SDS011;60644;55.858;37.390;2023-03-23T14:57:54;7.57;;;2.33;;
72601;SDS011;60644;55.858;37.390;2023-03-23T15:00:21;7.55;;;2.75;;
72601;SDS011;60644;55.858;37.390;2023-03-23T15:02:51;8.52;;;2.58;;
72601;SDS011;60644;55.858;37.390;2023-03-23T15:05:29;8.82;;;3.00;;
72601;SDS011;60644;55.858;37.390;2023-03-23T15:08:05;9.50;;;2.60;;
72601;SDS011;60644;55.858;37.390;2023-03-23T15:10:30;10.68;;;2.83;;
72601;SDS011;60644;55.858;37.390;2023-03-23T15:12:56;10.35;;;2.70;;
72601;SDS011;60644;55.858;37.390;2023-03-23T15:15:26;16.90;;;3.00;;
72601;SDS011;60644;55.858;37.390;2023-03-23T15:17:52;10.80;;;2.47;;
72601;SDS011;60644;55.858;37.390;2023-03-23T15:20:28;9.33;;;2.57;;
72601;SDS011;60644;55.858;37.390;2023-03-23T15:22:54;8.73;;;2.55;;
72601;SDS011;60644;55.858;37.390;2023-03-23T15:25:21;9.27;;;3.13;;
72601;SDS011;60644;55.858;37.390;2023-03-23T15:27:52;15.30;;;2.90;;
72601;SDS011;60644;55.858;37.390;2023-03-23T15:32:50;10.00;;;2.50;;
72601;SDS011;60644;55.858;37.390;2023-03-23T15:35:17;9.35;;;3.40;;
72601;SDS011;60644;55.858;37.390;2023-03-23T15:37:45;11.25;;;2.63;;
72601;SDS011;60644;55.858;37.390;2023-03-23T15:40:23;7.97;;;3.03;;
72601;SDS011;60644;55.858;37.390;2023-03-23T15:43:34;7.47;;;2.83;;
72601;SDS011;60644;55.858;37.390;2023-03-23T15:45:52;6.93;;;2.50;;
72601;SDS011;60644;55.858;37.390;2023-03-23T15:48:18;8.45;;;2.58;;
72601;SDS011;60644;55.858;37.390;2023-03-23T15:50:45;9.73;;;2.67;;
72601;SDS011;60644;55.858;37.390;2023-03-23T15:53:26;8.02;;;3.08;;
72601;SDS011;60644;55.858;37.390;2023-03-23T15:55:52;11.98;;;3.53;;
72601;SDS011;60644;55.858;37.390;2023-03-23T15:58:18;13.45;;;3.40;;
72601;SDS011;60644;55.858;37.390;2023-03-23T16:00:44;13.73;;;3.13;;
72601;SDS011;60644;55.858;37.390;2023-03-23T16:03:21;9.18;;;3.50;;
72601;SDS011;60644;55.858;37.390;2023-03-23T16:05:49;13.25;;;2.95;;
72601;SDS011;60644;55.858;37.390;2023-03-23T16:08:15;11.43;;;2.85;;
72601;SDS011;60644;55.858;37.390;2023-03-23T16:10:42;7.43;;;2.58;;
72601;SDS011;60644;55.858;37.390;2023-03-23T16:13:07;7.97;;;2.70;;
72601;SDS011;60644;55.858;37.390;2023-03-23T16:15:33;10.83;;;2.57;;
72601;SDS011;60644;55.858;37.390;2023-03-23T16:17:59;9.87;;;3.27;;
72601;SDS011;60644;55.858;37.390;2023-03-23T16:20:24;9.25;;;3.30;;
72601;SDS011;60644;55.858;37.390;2023-03-23T16:22:50;11.00;;;2.53;;
72601;SDS011;60644;55.858;37.390;2023-03-23T16:25:16;8.85;;;2.70;;
72601;SDS011;60644;55.858;37.390;2023-03-23T16:27:43;10.98;;;2.72;;
72601;SDS011;60644;55.858;37.390;2023-03-23T16:30:26;9.85;;;3.03;;
72601;SDS011;60644;55.858;37.390;2023-03-23T16:32:52;9.30;;;3.60;;
72601;SDS011;60644;55.858;37.390;2023-03-23T16:35:18;13.97;;;3.57;;
72601;SDS011;60644;55.858;37.390;2023-03-23T16:37:47;8.52;;;2.67;;
72601;SDS011;60644;55.858;37.390;2023-03-23T16:40:14;6.85;;;2.42;;
72601;SDS011;60644;55.858;37.390;2023-03-23T16:42:39;8.18;;;2.92;;
72601;SDS011;60644;55.858;37.390;2023-03-23T16:45:06;9.13;;;2.90;;
72601;SDS011;60644;55.858;37.390;2023-03-23T16:47:31;7.30;;;2.70;;